createdAt,value
2019-04-06T00:02:21.706Z,110.03
2019-04-06T00:04:50.775Z,119.50
2019-04-06T00:07:19.477Z,122.95
2019-04-06T00:09:48.185Z,102.10
2019-04-06T00:12:16.913Z,113.57
2019-04-06T00:14:45.695Z,107.27
2019-04-06T00:17:14.460Z,114.05
2019-04-06T00:19:43.151Z,107.25
2019-04-06T00:22:11.872Z,104.40
2019-04-06T00:24:41.086Z,105.50
2019-04-06T00:27:10.098Z,116.22
2019-04-06T00:29:38.826Z,123.13
2019-04-06T00:32:18.039Z,119.10
2019-04-06T00:34:47.082Z,138.07
2019-04-06T00:37:15.776Z,136.97
2019-04-06T00:39:44.492Z,131.50
2019-04-06T00:42:13.204Z,134.65
2019-04-06T00:44:41.942Z,127.20
2019-04-06T00:47:10.658Z,116.50
2019-04-06T00:49:39.424Z,124.33
2019-04-06T00:52:08.160Z,130.03
2019-04-06T00:54:36.879Z,127.00
2019-04-06T00:57:05.624Z,117.28
2019-04-06T00:59:34.350Z,151.02
2019-04-06T01:02:03.160Z,123.10
2019-04-06T01:04:31.602Z,131.72
2019-04-06T01:07:00.402Z,127.85
2019-04-06T01:09:29.181Z,141.90
2019-04-06T01:11:58.055Z,116.50
2019-04-06T01:14:26.550Z,125.05
2019-04-06T01:16:55.264Z,113.57
2019-04-06T01:19:23.986Z,123.42
2019-04-06T01:21:52.740Z,129.18
2019-04-06T01:24:21.444Z,134.35
2019-04-06T01:26:50.169Z,119.77
2019-04-06T01:29:18.899Z,120.42
2019-04-06T01:31:47.644Z,131.50
2019-04-06T01:34:16.354Z,111.52
2019-04-06T01:36:45.078Z,123.87
2019-04-06T01:39:13.844Z,118.50
2019-04-06T01:41:42.610Z,107.25
2019-04-06T01:44:11.286Z,121.45
2019-04-06T01:46:40.026Z,116.53
2019-04-06T01:49:08.743Z,128.35
2019-04-06T01:51:37.500Z,124.20
2019-04-06T01:54:06.315Z,126.30
2019-04-06T01:56:34.767Z,124.05
2019-04-06T01:59:03.516Z,122.10
2019-04-06T02:01:36.371Z,140.70
2019-04-06T02:04:05.421Z,129.12
2019-04-06T02:06:34.169Z,134.35
2019-04-06T02:09:03.444Z,113.68
2019-04-06T02:11:32.471Z,119.57
2019-04-06T02:14:01.179Z,123.22
2019-04-06T02:16:29.904Z,138.18
2019-04-06T02:18:58.717Z,117.28
2019-04-06T02:21:27.401Z,115.60
2019-04-06T02:23:56.145Z,109.80
2019-04-06T02:26:30.939Z,122.53
2019-04-06T02:28:55.525Z,114.03
2019-04-06T02:31:35.010Z,126.80
2019-04-06T02:34:05.733Z,127.07
2019-04-06T02:36:48.418Z,124.30
2019-04-06T02:39:27.872Z,118.60
2019-04-06T02:41:58.721Z,124.75
2019-04-06T02:44:27.713Z,114.50
2019-04-06T02:46:56.528Z,138.40
2019-04-06T02:49:25.297Z,115.22
2019-04-06T02:51:53.982Z,118.20
2019-04-06T02:54:22.726Z,113.45
2019-04-06T02:56:51.417Z,115.50
2019-04-06T02:59:20.132Z,128.15
2019-04-06T03:01:48.906Z,110.78
2019-04-06T03:04:17.641Z,106.78
2019-04-06T03:06:46.385Z,101.42
2019-04-06T03:09:15.220Z,119.45
2019-04-06T03:11:43.994Z,120.97
2019-04-06T03:14:12.725Z,106.58
2019-04-06T03:16:41.588Z,105.55
2019-04-06T03:19:10.303Z,129.27
2019-04-06T03:21:39.012Z,119.33
2019-04-06T03:24:07.724Z,108.50
2019-04-06T03:26:36.504Z,109.42
2019-04-06T03:29:05.172Z,113.92
2019-04-06T03:31:34.015Z,126.07
2019-04-06T03:36:30.929Z,122.67
2019-04-06T03:38:59.687Z,123.40
2019-04-06T03:41:28.664Z,101.35
2019-04-06T03:46:24.967Z,120.40
2019-04-06T03:48:53.674Z,118.65
2019-04-06T03:51:22.392Z,130.32
2019-04-06T03:53:51.085Z,118.35
2019-04-06T03:56:19.893Z,115.62
2019-04-06T03:58:48.572Z,122.45
2019-04-06T04:01:17.268Z,108.47
2019-04-06T04:03:45.959Z,136.18
2019-04-06T04:06:14.585Z,139.05
2019-04-06T04:08:43.260Z,135.25
2019-04-06T04:11:11.977Z,113.20
2019-04-06T04:13:40.859Z,127.97
2019-04-06T04:16:09.273Z,120.90
2019-04-06T04:18:37.984Z,131.85
2019-04-06T04:21:06.670Z,127.53
2019-04-06T04:23:35.387Z,137.85
2019-04-06T04:26:04.068Z,121.92
2019-04-06T04:28:32.922Z,148.70
2019-04-06T04:31:01.785Z,126.40
2019-04-06T04:33:30.154Z,132.03
2019-04-06T04:35:58.982Z,145.77
2019-04-06T04:38:27.657Z,143.72
2019-04-06T04:40:56.331Z,130.45
2019-04-06T04:43:24.985Z,134.63
2019-04-06T04:45:53.663Z,157.70
2019-04-06T04:48:22.308Z,167.60
2019-04-06T04:50:51.026Z,140.92
2019-04-06T04:53:19.692Z,149.27
2019-04-06T04:55:48.829Z,163.10
2019-04-06T05:00:45.466Z,153.23
2019-04-06T05:03:14.120Z,179.35
2019-04-06T05:05:42.847Z,149.07
2019-04-06T05:08:11.543Z,158.10
2019-04-06T05:10:40.227Z,145.65
2019-04-06T05:13:08.936Z,179.25
2019-04-06T05:15:46.841Z,139.47
2019-04-06T05:18:15.905Z,145.22
2019-04-06T05:20:44.457Z,146.85
2019-04-06T05:23:13.089Z,139.20
2019-04-06T05:25:41.722Z,153.78
2019-04-06T05:28:10.397Z,150.10
2019-04-06T05:30:39.018Z,145.82
2019-04-06T05:33:07.700Z,151.22
2019-04-06T05:35:36.313Z,168.37
2019-04-06T05:38:04.941Z,157.82
2019-04-06T05:40:33.629Z,169.17
2019-04-06T05:43:02.325Z,162.72
2019-04-06T05:45:31.032Z,173.72
2019-04-06T05:47:59.707Z,182.32
2019-04-06T05:50:28.580Z,162.15
2019-04-06T05:52:56.922Z,170.95
2019-04-06T05:55:25.550Z,169.22
2019-04-06T05:58:03.537Z,182.75
2019-04-06T06:00:25.140Z,197.22
2019-04-06T06:02:53.501Z,193.40
2019-04-06T06:05:22.130Z,181.05
2019-04-06T06:07:50.755Z,192.13
2019-04-06T06:10:19.466Z,185.35
2019-04-06T06:12:48.081Z,160.88
2019-04-06T06:15:16.777Z,188.93
2019-04-06T06:17:45.493Z,177.68
2019-04-06T06:20:14.191Z,173.17
2019-04-06T06:22:42.910Z,179.15
2019-04-06T06:25:11.588Z,172.68
2019-04-06T06:27:40.352Z,183.22
2019-04-06T06:30:09.014Z,169.00
2019-04-06T06:32:37.693Z,174.70
2019-04-06T06:35:06.488Z,183.50
2019-04-06T06:37:35.109Z,186.40
2019-04-06T06:40:06.045Z,179.38
2019-04-06T06:42:34.980Z,171.90
2019-04-06T06:45:04.365Z,172.98
2019-04-06T06:47:33.397Z,154.40
2019-04-06T06:50:02.160Z,159.75
2019-04-06T06:52:30.846Z,159.22
2019-04-06T06:54:59.557Z,160.07
2019-04-06T06:57:28.163Z,163.62
2019-04-06T06:59:56.878Z,145.62
2019-04-06T07:02:25.505Z,142.25
2019-04-06T07:04:54.129Z,144.75
2019-04-06T07:07:22.902Z,137.37
2019-04-06T07:09:51.529Z,133.25
2019-04-06T07:12:20.265Z,128.72
2019-04-06T07:14:48.967Z,131.63
2019-04-06T07:17:17.605Z,127.42
2019-04-06T07:19:46.329Z,111.68
2019-04-06T07:22:15.019Z,115.82
2019-04-06T07:24:43.803Z,114.65
2019-04-06T07:27:12.266Z,120.60
2019-04-06T07:29:41.175Z,113.55
2019-04-06T07:32:09.592Z,112.08
2019-04-06T07:34:38.267Z,120.20
2019-04-06T07:37:06.985Z,107.83
2019-04-06T07:39:35.647Z,112.72
2019-04-06T07:42:04.299Z,120.75
2019-04-06T07:44:33.020Z,117.85
2019-04-06T07:47:01.707Z,108.22
2019-04-06T07:49:30.417Z,107.83
2019-04-06T07:51:59.108Z,102.92
2019-04-06T07:54:27.805Z,108.42
2019-04-06T07:56:56.592Z,109.92
2019-04-06T07:59:25.212Z,105.05
2019-04-06T08:01:53.912Z,102.62
2019-04-06T08:04:22.528Z,114.82
2019-04-06T08:06:51.413Z,96.80
2019-04-06T08:09:19.922Z,100.85
2019-04-06T08:11:48.537Z,101.33
2019-04-06T08:14:17.261Z,109.07
2019-04-06T08:16:45.957Z,98.75
2019-04-06T08:19:14.660Z,100.85
2019-04-06T08:21:43.364Z,90.38
2019-04-06T08:24:12.061Z,94.25
2019-04-06T08:26:40.765Z,96.28
2019-04-06T08:29:09.416Z,91.60
2019-04-06T08:31:38.077Z,95.45
2019-04-06T08:34:06.787Z,89.47
2019-04-06T08:36:35.672Z,97.60
2019-04-06T08:41:33.395Z,92.33
2019-04-06T08:44:02.200Z,86.70
2019-04-06T08:46:30.680Z,79.30
2019-04-06T08:48:59.377Z,84.42
2019-04-06T08:51:28.097Z,81.63
2019-04-06T08:53:56.826Z,83.78
2019-04-06T08:56:25.508Z,79.27
2019-04-06T08:58:54.143Z,80.22
2019-04-06T09:01:22.755Z,76.60
2019-04-06T09:03:51.572Z,86.80
2019-04-06T09:08:48.429Z,74.47
2019-04-06T09:11:17.075Z,66.45
2019-04-06T09:13:45.691Z,79.85
2019-04-06T09:16:14.365Z,72.80
2019-04-06T09:18:42.995Z,72.78
2019-04-06T09:21:11.639Z,74.30
2019-04-06T09:23:40.298Z,77.37
2019-04-06T09:26:08.939Z,66.75
2019-04-06T09:28:37.627Z,69.42
2019-04-06T09:31:06.418Z,69.05
2019-04-06T09:33:34.822Z,72.87
2019-04-06T09:36:03.544Z,73.87
2019-04-06T09:38:32.012Z,74.05
2019-04-06T09:41:00.783Z,68.30
2019-04-06T09:46:10.741Z,71.95
2019-04-06T09:48:44.055Z,71.13
2019-04-06T09:51:14.385Z,62.53
2019-04-06T09:53:44.726Z,61.60
2019-04-06T09:56:24.107Z,67.27
2019-04-06T09:59:03.490Z,69.23
2019-04-06T10:01:42.799Z,63.93
2019-04-06T10:04:15.787Z,61.07
2019-04-06T10:07:02.342Z,64.63
2019-04-06T10:09:35.869Z,63.53
2019-04-06T10:12:06.165Z,67.43
2019-04-06T10:14:52.571Z,72.50
2019-04-06T10:17:25.905Z,65.50
2019-04-06T10:19:56.273Z,62.77
2019-04-06T10:22:29.506Z,61.63
2019-04-06T10:25:02.542Z,56.20
2019-04-06T10:27:44.706Z,68.37
2019-04-06T10:30:14.998Z,62.70
2019-04-06T10:32:50.951Z,59.30
2019-04-06T10:35:21.272Z,56.07
2019-04-06T10:38:07.661Z,59.30
2019-04-06T10:40:37.952Z,56.43
2019-04-06T10:43:14.429Z,57.73
2019-04-06T10:45:44.688Z,54.00
2019-04-06T10:48:14.938Z,50.80
2019-04-06T10:50:48.168Z,64.13
2019-04-06T10:53:33.585Z,55.60
2019-04-06T10:56:10.157Z,53.83
2019-04-06T10:58:51.994Z,57.70
2019-04-06T11:01:38.458Z,51.50
2019-04-06T11:04:17.524Z,51.90
2019-04-06T11:06:56.980Z,52.07
2019-04-06T11:09:43.358Z,48.23
2019-04-06T11:12:29.892Z,41.20
2019-04-06T11:15:00.231Z,41.60
2019-04-06T11:17:47.047Z,42.63
2019-04-06T11:20:23.147Z,47.07
2019-04-06T11:22:59.141Z,41.40
2019-04-06T11:25:29.390Z,44.30
2019-04-06T11:28:03.792Z,42.97
2019-04-06T11:30:50.317Z,44.93
2019-04-06T11:33:36.665Z,39.83
2019-04-06T11:36:07.000Z,45.93
2019-04-06T11:38:40.102Z,40.00
2019-04-06T11:41:10.627Z,39.70
2019-04-06T11:43:47.165Z,42.37
2019-04-06T11:46:23.211Z,39.20
2019-04-06T11:48:53.511Z,40.23
2019-04-06T11:51:32.711Z,38.53
2019-04-06T11:54:19.063Z,52.60
2019-04-06T11:56:52.457Z,40.17
2019-04-06T11:59:22.890Z,41.40
2019-04-06T12:02:05.335Z,36.53
2019-04-06T12:04:35.594Z,38.73
2019-04-06T12:07:14.875Z,38.17
2019-04-06T12:09:48.109Z,38.33
2019-04-06T12:12:27.144Z,36.20
2019-04-06T12:15:00.471Z,38.20
2019-04-06T12:17:46.926Z,37.20
2019-04-06T12:20:20.279Z,39.37
2019-04-06T12:22:51.295Z,38.83
2019-04-06T12:25:24.670Z,33.90
2019-04-06T12:27:54.951Z,38.40
2019-04-06T12:30:36.956Z,37.13
2019-04-06T12:33:13.255Z,34.53
2019-04-06T12:35:43.593Z,46.47
2019-04-06T12:38:16.977Z,42.43
2019-04-06T12:40:49.750Z,42.43
2019-04-06T12:43:36.375Z,42.03
2019-04-06T12:46:18.445Z,47.57
2019-04-06T12:48:49.638Z,43.33
2019-04-06T12:51:20.742Z,44.10
2019-04-06T12:53:51.073Z,42.63
2019-04-06T12:56:27.141Z,41.53
2019-04-06T12:59:15.376Z,41.73
2019-04-06T13:01:48.607Z,36.05
2019-04-06T13:04:22.162Z,41.67
2019-04-06T13:06:55.751Z,37.43
2019-04-06T13:09:42.142Z,36.27
2019-04-06T13:12:18.310Z,34.33
2019-04-06T13:15:00.358Z,33.83
2019-04-06T13:17:30.733Z,28.77
2019-04-06T13:20:09.995Z,32.00
2019-04-06T13:22:49.317Z,35.63
2019-04-06T13:25:19.672Z,31.37
2019-04-06T13:27:49.934Z,29.37
2019-04-06T13:30:23.361Z,26.57
2019-04-06T13:32:53.682Z,24.50
2019-04-06T13:35:41.527Z,28.40
2019-04-06T13:38:11.850Z,30.43
2019-04-06T13:40:44.827Z,28.77
2019-04-06T13:43:21.133Z,27.50
2019-04-06T13:45:51.428Z,25.90
2019-04-06T13:48:37.873Z,24.93
2019-04-06T13:51:20.658Z,24.43
2019-04-06T13:53:52.310Z,24.40
2019-04-06T13:56:28.677Z,26.00
2019-04-06T13:58:58.930Z,25.17
2019-04-06T14:01:29.366Z,22.53
2019-04-06T14:04:00.001Z,26.73
2019-04-06T14:06:33.062Z,26.30
2019-04-06T14:09:03.338Z,27.47
2019-04-06T14:11:36.613Z,30.57
2019-04-06T14:14:12.685Z,23.83
2019-04-06T14:16:52.099Z,48.87
2019-04-06T14:19:37.224Z,21.80
2019-04-06T14:22:10.201Z,25.63
2019-04-06T14:24:40.591Z,21.73
2019-04-06T14:27:26.905Z,21.17
2019-04-06T14:30:08.964Z,20.63
2019-04-06T14:32:48.218Z,20.30
2019-04-06T14:35:30.468Z,19.47
2019-04-06T14:38:16.975Z,22.97
2019-04-06T14:40:50.283Z,18.57
2019-04-06T14:43:32.485Z,17.87
2019-04-06T14:46:14.798Z,30.43
2019-04-06T14:48:51.157Z,21.43
2019-04-06T14:51:21.448Z,16.80
2019-04-06T14:54:00.840Z,15.10
2019-04-06T14:56:47.284Z,16.97
2019-04-06T14:59:23.490Z,15.93
2019-04-06T15:02:06.074Z,18.27
2019-04-06T15:04:42.502Z,22.23
2019-04-06T15:07:13.189Z,20.27
2019-04-06T15:09:55.691Z,20.63
2019-04-06T15:12:41.082Z,24.57
2019-04-06T15:15:17.384Z,25.30
2019-04-06T15:17:54.902Z,24.20
2019-04-06T15:23:15.115Z,33.67
2019-04-06T15:25:53.914Z,31.70
2019-04-06T15:28:33.195Z,29.03
2019-04-06T15:31:20.303Z,29.23
2019-04-06T15:34:02.032Z,30.88
2019-04-06T15:36:32.381Z,29.50
2019-04-06T15:39:17.818Z,28.73
2019-04-06T15:42:04.103Z,30.67
2019-04-06T15:44:34.430Z,30.53
2019-04-06T15:47:20.772Z,28.07
2019-04-06T15:49:51.202Z,29.53
2019-04-06T15:52:37.544Z,28.23
2019-04-06T15:55:10.917Z,29.93
2019-04-06T15:57:44.217Z,38.60
2019-04-06T16:00:20.220Z,34.87
2019-04-06T16:02:56.693Z,31.80
2019-04-06T16:05:27.349Z,32.73
2019-04-06T16:08:00.728Z,32.63
2019-04-06T16:10:31.007Z,33.33
2019-04-06T16:13:01.432Z,34.57
2019-04-06T16:15:34.724Z,31.30
2019-04-06T16:18:14.327Z,31.03
2019-04-06T16:20:47.308Z,31.33
2019-04-06T16:23:33.841Z,36.73
2019-04-06T16:26:09.917Z,34.13
2019-04-06T16:28:40.306Z,32.17
2019-04-06T16:31:10.571Z,32.50
2019-04-06T16:33:46.987Z,36.23
2019-04-06T16:36:17.399Z,32.57
2019-04-06T16:39:03.788Z,34.67
2019-04-06T16:41:37.011Z,34.63
2019-04-06T16:44:07.338Z,36.50
2019-04-06T16:46:40.314Z,33.23
2019-04-06T16:49:26.322Z,36.17
2019-04-06T16:51:59.753Z,36.40
2019-04-06T16:54:42.388Z,38.73
2019-04-06T16:57:12.692Z,38.83
2019-04-06T16:59:59.317Z,37.63
2019-04-06T17:02:38.373Z,39.60
2019-04-06T17:05:14.717Z,39.73
2019-04-06T17:08:10.712Z,40.80
2019-04-06T17:10:37.878Z,35.00
2019-04-06T17:13:08.199Z,39.50
2019-04-06T17:15:41.358Z,38.47
2019-04-06T17:18:11.857Z,36.57
2019-04-06T17:20:45.251Z,38.53
2019-04-06T17:23:24.493Z,38.17
2019-04-06T17:25:55.045Z,41.27
2019-04-06T17:28:43.504Z,36.50
2019-04-06T17:33:51.632Z,41.98
2019-04-06T17:36:31.171Z,44.00
2019-04-06T17:39:04.828Z,47.37
2019-04-06T17:41:40.932Z,44.23
2019-04-06T17:44:20.889Z,49.23
2019-04-06T17:46:51.647Z,40.63
2019-04-06T17:49:24.971Z,38.60
2019-04-06T17:52:07.483Z,46.83
2019-04-06T17:54:46.812Z,52.53
2019-04-06T17:57:17.428Z,40.90
2019-04-06T17:59:54.215Z,41.63
2019-04-06T18:02:24.630Z,46.03
2019-04-06T18:04:55.338Z,39.87
2019-04-06T18:07:41.744Z,39.27
2019-04-06T18:10:28.337Z,44.37
2019-04-06T18:13:01.874Z,45.63
2019-04-06T18:15:31.431Z,39.80
2019-04-06T18:18:00.105Z,45.27
2019-04-06T18:20:28.782Z,57.05
2019-04-06T18:25:25.072Z,44.03
2019-04-06T18:30:21.476Z,43.68
2019-04-06T18:32:59.723Z,44.00
2019-04-06T18:35:22.321Z,43.40
2019-04-06T18:40:35.275Z,45.10
2019-04-06T18:43:04.171Z,48.68
2019-04-06T18:45:32.955Z,44.03
2019-04-06T18:48:01.292Z,45.63
2019-04-06T18:50:35.914Z,49.18
2019-04-06T18:53:00.037Z,48.40
2019-04-06T18:55:28.966Z,46.85
2019-04-06T19:00:27.433Z,49.40
2019-04-06T19:02:56.081Z,46.77
2019-04-06T19:05:24.472Z,50.25
2019-04-06T19:07:53.180Z,54.58
2019-04-06T19:10:22.058Z,52.53
2019-04-06T19:15:18.487Z,50.45
2019-04-06T19:17:47.398Z,52.23
2019-04-06T19:20:16.143Z,51.00
2019-04-06T19:22:44.565Z,48.33
2019-04-06T19:25:13.248Z,49.25
2019-04-06T19:27:41.933Z,45.67
2019-04-06T19:30:11.047Z,61.18
2019-04-06T19:32:39.675Z,51.40
2019-04-06T19:35:08.877Z,54.13
2019-04-06T19:37:37.561Z,49.63
2019-04-06T19:40:06.255Z,53.35
2019-04-06T19:42:34.648Z,50.12
2019-04-06T19:45:04.635Z,51.80
2019-04-06T19:47:33.258Z,48.40
2019-04-06T19:50:02.001Z,52.25
2019-04-06T19:52:31.150Z,55.60
2019-04-06T19:54:59.858Z,47.80
2019-04-06T19:57:28.811Z,58.20
2019-04-06T19:59:57.526Z,51.40
2019-04-06T20:02:26.243Z,46.70
2019-04-06T20:04:54.878Z,51.33
2019-04-06T20:07:23.280Z,47.62
2019-04-06T20:09:52.166Z,56.25
2019-04-06T20:12:21.220Z,49.88
2019-04-06T20:14:49.933Z,53.35
2019-04-06T20:17:18.669Z,52.35
2019-04-06T20:19:47.361Z,56.05
2019-04-06T20:24:43.425Z,59.53
2019-04-06T20:27:12.212Z,59.03
2019-04-06T20:29:40.787Z,53.45
2019-04-06T20:32:09.169Z,53.85
2019-04-06T20:34:37.867Z,55.38
2019-04-06T20:37:06.481Z,62.03
2019-04-06T20:39:35.600Z,55.43
2019-04-06T20:42:04.299Z,60.40
2019-04-06T20:44:32.900Z,61.85
2019-04-06T20:47:01.644Z,60.48
2019-04-06T20:49:30.091Z,57.60
2019-04-06T20:51:59.604Z,55.10
2019-04-06T20:54:28.269Z,64.20
2019-04-06T20:56:58.226Z,62.90
2019-04-06T20:59:27.625Z,65.85
2019-04-06T21:01:56.336Z,60.67
2019-04-06T21:04:25.023Z,60.73
2019-04-06T21:06:53.682Z,63.42
2019-04-06T21:09:22.423Z,64.25
2019-04-06T21:11:51.115Z,63.87
2019-04-06T21:16:47.970Z,64.90
2019-04-06T21:19:16.588Z,66.05
2019-04-06T21:21:45.218Z,63.38
2019-04-06T21:24:13.896Z,66.15
2019-04-06T21:26:42.547Z,65.78
2019-04-06T21:29:11.383Z,63.05
2019-04-06T21:34:11.977Z,57.23
2019-04-06T21:36:39.018Z,71.87
2019-04-06T21:39:08.100Z,67.70
2019-04-06T21:41:37.419Z,65.87
2019-04-06T21:44:06.585Z,64.60
2019-04-06T21:46:35.003Z,65.17
2019-04-06T21:49:03.673Z,67.55
2019-04-06T21:51:32.471Z,60.70
2019-04-06T21:56:29.718Z,68.87
2019-04-06T21:58:58.344Z,59.42
2019-04-06T22:01:27.948Z,66.28
2019-04-06T22:03:57.622Z,63.75
2019-04-06T22:06:26.644Z,68.20
2019-04-06T22:08:55.336Z,71.15
2019-04-06T22:11:23.940Z,63.87
2019-04-06T22:13:52.554Z,63.02
2019-04-06T22:16:21.231Z,65.97
2019-04-06T22:18:49.936Z,58.87
2019-04-06T22:21:18.943Z,72.67
2019-04-06T22:23:47.605Z,61.67
2019-04-06T22:26:16.289Z,63.78
2019-04-06T22:28:44.908Z,61.80
2019-04-06T22:31:13.543Z,66.87
2019-04-06T22:33:42.213Z,63.80
2019-04-06T22:36:10.806Z,66.12
2019-04-06T22:38:40.010Z,68.00
2019-04-06T22:41:09.174Z,66.90
2019-04-06T22:46:05.779Z,65.20
2019-04-06T22:48:34.698Z,66.85
2019-04-06T22:53:30.696Z,68.83
2019-04-06T22:55:59.342Z,67.67
2019-04-06T22:58:27.987Z,75.52
2019-04-06T23:01:01.403Z,77.45
2019-04-06T23:03:48.359Z,73.40
2019-04-06T23:06:36.804Z,64.80
2019-04-06T23:09:07.646Z,70.40
2019-04-06T23:11:36.682Z,70.28
2019-04-06T23:14:05.379Z,74.45
2019-04-06T23:16:34.190Z,73.83
2019-04-06T23:19:02.588Z,74.30
2019-04-06T23:21:31.658Z,75.37
2019-04-06T23:24:03.058Z,75.37
2019-04-06T23:26:30.969Z,73.87
2019-04-06T23:28:59.682Z,74.70
2019-04-06T23:31:28.085Z,71.72
2019-04-06T23:33:57.274Z,74.00
2019-04-06T23:36:26.258Z,75.03
2019-04-06T23:38:54.846Z,70.17
2019-04-06T23:41:23.435Z,72.40
2019-04-06T23:43:52.063Z,78.62
2019-04-06T23:46:20.695Z,74.70
2019-04-06T23:48:49.854Z,70.65
2019-04-06T23:51:18.852Z,74.60
2019-04-06T23:53:48.049Z,72.55
2019-04-06T23:56:17.096Z,76.10
2019-04-06T23:58:45.750Z,73.15
